sensor_id;sensor_type;location;lat;lon;timestamp;pressure;altitude;pressure_sealevel;temperature;humidity
55610;BME280;41486;52.502;13.486;2023-06-24T00:02:04;101648.63;;;17.86;100.00
55610;BME280;41486;52.502;13.486;2023-06-24T00:04:33;101652.66;;;17.60;100.00
55610;BME280;41486;52.502;13.486;2023-06-24T00:07:01;101668.31;;;17.44;100.00
55610;BME280;41486;52.502;13.486;2023-06-24T00:09:29;101667.47;;;17.33;100.00
55610;BME280;41486;52.502;13.486;2023-06-24T00:11:59;101669.56;;;17.30;100.00
55610;BME280;41486;52.502;13.486;2023-06-24T00:14:28;101671.06;;;17.23;100.00
55610;BME280;41486;52.502;13.486;2023-06-24T00:16:56;101675.56;;;17.22;100.00
55610;BME280;41486;52.502;13.486;2023-06-24T00:19:25;101670.81;;;17.35;100.00
55610;BME280;41486;52.502;13.486;2023-06-24T00:21:54;101676.84;;;17.28;100.00
55610;BME280;41486;52.502;13.486;2023-06-24T00:24:23;101687.31;;;17.19;100.00
55610;BME280;41486;52.502;13.486;2023-06-24T00:26:53;101690.56;;;17.33;100.00
55610;BME280;41486;52.502;13.486;2023-06-24T00:29:22;101693.38;;;17.41;100.00
55610;BME280;41486;52.502;13.486;2023-06-24T00:31:50;101688.78;;;17.43;100.00
55610;BME280;41486;52.502;13.486;2023-06-24T00:34:19;101699.97;;;17.37;100.00
55610;BME280;41486;52.502;13.486;2023-06-24T00:36:47;101702.31;;;17.30;100.00
55610;BME280;41486;52.502;13.486;2023-06-24T00:39:15;101698.34;;;17.15;100.00
55610;BME280;41486;52.502;13.486;2023-06-24T00:41:43;101698.78;;;17.20;100.00
55610;BME280;41486;52.502;13.486;2023-06-24T00:44:12;101699.41;;;17.43;100.00
55610;BME280;41486;52.502;13.486;2023-06-24T00:46:41;101694.44;;;17.19;100.00
55610;BME280;41486;52.502;13.486;2023-06-24T00:49:09;101692.66;;;17.29;100.00
55610;BME280;41486;52.502;13.486;2023-06-24T00:51:42;101691.78;;;17.19;100.00
55610;BME280;41486;52.502;13.486;2023-06-24T00:54:14;101694.44;;;17.19;100.00
55610;BME280;41486;52.502;13.486;2023-06-24T00:56:43;101706.41;;;17.44;100.00
55610;BME280;41486;52.502;13.486;2023-06-24T00:59:15;101703.63;;;17.46;100.00
55610;BME280;41486;52.502;13.486;2023-06-24T01:01:46;101711.03;;;17.42;100.00
55610;BME280;41486;52.502;13.486;2023-06-24T01:04:14;101714.25;;;17.46;100.00
55610;BME280;41486;52.502;13.486;2023-06-24T01:06:43;101702.38;;;17.60;100.00
55610;BME280;41486;52.502;13.486;2023-06-24T01:09:12;101703.22;;;17.50;100.00
55610;BME280;41486;52.502;13.486;2023-06-24T01:11:40;101694.09;;;17.63;100.00
55610;BME280;41486;52.502;13.486;2023-06-24T01:14:08;101697.78;;;17.62;100.00
55610;BME280;41486;52.502;13.486;2023-06-24T01:16:51;101688.63;;;17.55;100.00
55610;BME280;41486;52.502;13.486;2023-06-24T03:20:30;101702.13;;;16.18;100.00
55610;BME280;41486;52.502;13.486;2023-06-24T03:23:09;101703.47;;;16.12;100.00
55610;BME280;41486;52.502;13.486;2023-06-24T03:25:38;101704.63;;;16.19;100.00
55610;BME280;41486;52.502;13.486;2023-06-24T03:28:06;101701.28;;;16.17;100.00
55610;BME280;41486;52.502;13.486;2023-06-24T03:30:44;101708.41;;;16.17;100.00
55610;BME280;41486;52.502;13.486;2023-06-24T03:33:16;101710.94;;;16.18;100.00
55610;BME280;41486;52.502;13.486;2023-06-24T03:35:47;101710.47;;;16.13;100.00
55610;BME280;41486;52.502;13.486;2023-06-24T03:38:19;101712.75;;;16.18;100.00
55610;BME280;41486;52.502;13.486;2023-06-24T03:40:48;101719.19;;;16.04;100.00
55610;BME280;41486;52.502;13.486;2023-06-24T03:43:16;101718.56;;;16.12;100.00
55610;BME280;41486;52.502;13.486;2023-06-24T03:45:44;101710.31;;;16.15;100.00
55610;BME280;41486;52.502;13.486;2023-06-24T03:48:12;101715.19;;;16.09;100.00
55610;BME280;41486;52.502;13.486;2023-06-24T03:50:40;101710.97;;;16.07;100.00
55610;BME280;41486;52.502;13.486;2023-06-24T03:53:10;101714.25;;;15.99;100.00
55610;BME280;41486;52.502;13.486;2023-06-24T03:55:38;101717.13;;;16.07;100.00
55610;BME280;41486;52.502;13.486;2023-06-24T03:58:06;101722.13;;;16.01;100.00
55610;BME280;41486;52.502;13.486;2023-06-24T04:00:35;101725.97;;;15.97;100.00
55610;BME280;41486;52.502;13.486;2023-06-24T04:03:06;101729.50;;;15.97;100.00
55610;BME280;41486;52.502;13.486;2023-06-24T04:05:35;101732.03;;;15.87;100.00
55610;BME280;41486;52.502;13.486;2023-06-24T04:08:04;101732.63;;;15.91;100.00
55610;BME280;41486;52.502;13.486;2023-06-24T04:10:34;101731.94;;;15.89;100.00
55610;BME280;41486;52.502;13.486;2023-06-24T04:13:03;101724.94;;;15.76;100.00
55610;BME280;41486;52.502;13.486;2023-06-24T04:15:32;101723.72;;;15.81;100.00
55610;BME280;41486;52.502;13.486;2023-06-24T04:18:01;101731.09;;;15.77;100.00
55610;BME280;41486;52.502;13.486;2023-06-24T04:20:29;101728.69;;;15.74;100.00
55610;BME280;41486;52.502;13.486;2023-06-24T04:22:58;101732.56;;;15.70;100.00
55610;BME280;41486;52.502;13.486;2023-06-24T04:25:28;101736.41;;;15.77;100.00
55610;BME280;41486;52.502;13.486;2023-06-24T04:27:58;101732.16;;;15.74;100.00
55610;BME280;41486;52.502;13.486;2023-06-24T04:30:26;101738.47;;;15.73;100.00
55610;BME280;41486;52.502;13.486;2023-06-24T04:32:54;101747.00;;;15.77;100.00
55610;BME280;41486;52.502;13.486;2023-06-24T04:35:24;101749.06;;;15.73;100.00
55610;BME280;41486;52.502;13.486;2023-06-24T04:37:52;101753.03;;;15.79;100.00
55610;BME280;41486;52.502;13.486;2023-06-24T04:40:20;101756.25;;;15.83;100.00
55610;BME280;41486;52.502;13.486;2023-06-24T04:42:48;101754.13;;;15.76;100.00
55610;BME280;41486;52.502;13.486;2023-06-24T04:45:18;101747.59;;;15.81;100.00
55610;BME280;41486;52.502;13.486;2023-06-24T04:47:45;101746.88;;;15.78;100.00
55610;BME280;41486;52.502;13.486;2023-06-24T04:50:14;101750.88;;;15.73;100.00
55610;BME280;41486;52.502;13.486;2023-06-24T04:52:41;101760.16;;;15.67;100.00
55610;BME280;41486;52.502;13.486;2023-06-24T04:55:09;101758.81;;;15.73;100.00
55610;BME280;41486;52.502;13.486;2023-06-24T04:57:37;101766.78;;;15.73;100.00
55610;BME280;41486;52.502;13.486;2023-06-24T05:00:07;101765.22;;;15.82;100.00
55610;BME280;41486;52.502;13.486;2023-06-24T05:02:39;101768.38;;;15.87;100.00
55610;BME280;41486;52.502;13.486;2023-06-24T05:05:07;101761.59;;;15.94;100.00
55610;BME280;41486;52.502;13.486;2023-06-24T05:07:35;101772.22;;;15.94;100.00
55610;BME280;41486;52.502;13.486;2023-06-24T05:10:04;101767.72;;;15.95;100.00
55610;BME280;41486;52.502;13.486;2023-06-24T05:12:32;101764.88;;;15.86;100.00
55610;BME280;41486;52.502;13.486;2023-06-24T05:15:00;101766.66;;;15.97;100.00
55610;BME280;41486;52.502;13.486;2023-06-24T05:17:28;101764.31;;;16.04;100.00
55610;BME280;41486;52.502;13.486;2023-06-24T05:19:57;101764.91;;;16.07;100.00
55610;BME280;41486;52.502;13.486;2023-06-24T05:22:26;101765.78;;;16.08;100.00
55610;BME280;41486;52.502;13.486;2023-06-24T05:24:54;101766.59;;;16.08;100.00
55610;BME280;41486;52.502;13.486;2023-06-24T05:27:22;101772.50;;;16.12;100.00
55610;BME280;41486;52.502;13.486;2023-06-24T05:29:50;101756.94;;;16.07;100.00
55610;BME280;41486;52.502;13.486;2023-06-24T05:32:18;101763.34;;;16.16;100.00
55610;BME280;41486;52.502;13.486;2023-06-24T05:34:47;101775.38;;;16.20;100.00
55610;BME280;41486;52.502;13.486;2023-06-24T05:37:16;101775.28;;;16.11;100.00
55610;BME280;41486;52.502;13.486;2023-06-24T05:39:44;101779.84;;;16.20;100.00
55610;BME280;41486;52.502;13.486;2023-06-24T05:42:12;101772.75;;;16.42;100.00
55610;BME280;41486;52.502;13.486;2023-06-24T05:44:40;101784.28;;;16.31;100.00
55610;BME280;41486;52.502;13.486;2023-06-24T05:47:08;101787.00;;;16.40;100.00
55610;BME280;41486;52.502;13.486;2023-06-24T05:49:36;101794.16;;;16.40;100.00
55610;BME280;41486;52.502;13.486;2023-06-24T05:52:05;101788.91;;;16.50;100.00
55610;BME280;41486;52.502;13.486;2023-06-24T05:54:34;101795.44;;;16.46;100.00
55610;BME280;41486;52.502;13.486;2023-06-24T05:57:03;101797.13;;;16.47;100.00
55610;BME280;41486;52.502;13.486;2023-06-24T05:59:32;101794.94;;;16.52;100.00
55610;BME280;41486;52.502;13.486;2023-06-24T06:02:01;101786.59;;;16.56;100.00
55610;BME280;41486;52.502;13.486;2023-06-24T06:04:29;101786.47;;;16.47;100.00
55610;BME280;41486;52.502;13.486;2023-06-24T06:06:57;101788.38;;;16.56;100.00
55610;BME280;41486;52.502;13.486;2023-06-24T06:09:26;101790.66;;;16.61;100.00
55610;BME280;41486;52.502;13.486;2023-06-24T06:11:55;101787.59;;;16.65;100.00
55610;BME280;41486;52.502;13.486;2023-06-24T06:14:23;101783.72;;;16.69;100.00
55610;BME280;41486;52.502;13.486;2023-06-24T06:16:51;101788.06;;;16.70;100.00
55610;BME280;41486;52.502;13.486;2023-06-24T06:19:19;101788.06;;;16.70;100.00
55610;BME280;41486;52.502;13.486;2023-06-24T06:21:49;101787.16;;;16.81;100.00
55610;BME280;41486;52.502;13.486;2023-06-24T06:24:18;101793.28;;;16.93;100.00
55610;BME280;41486;52.502;13.486;2023-06-24T06:26:46;101796.25;;;17.00;100.00
55610;BME280;41486;52.502;13.486;2023-06-24T06:29:17;101792.03;;;16.97;100.00
55610;BME280;41486;52.502;13.486;2023-06-24T06:31:44;101784.81;;;17.09;100.00
55610;BME280;41486;52.502;13.486;2023-06-24T06:34:13;101792.72;;;17.21;100.00
55610;BME280;41486;52.502;13.486;2023-06-24T06:36:41;101789.34;;;17.18;100.00
55610;BME280;41486;52.502;13.486;2023-06-24T06:39:09;101787.97;;;17.24;100.00
55610;BME280;41486;52.502;13.486;2023-06-24T06:41:38;101780.66;;;17.16;100.00
55610;BME280;41486;52.502;13.486;2023-06-24T06:44:16;101786.84;;;17.17;100.00
55610;BME280;41486;52.502;13.486;2023-06-24T06:46:44;101784.38;;;17.35;100.00
55610;BME280;41486;52.502;13.486;2023-06-24T06:49:12;101783.03;;;17.50;100.00
55610;BME280;41486;52.502;13.486;2023-06-24T06:51:40;101779.44;;;17.61;100.00
55610;BME280;41486;52.502;13.486;2023-06-24T06:54:08;101787.72;;;17.68;100.00
55610;BME280;41486;52.502;13.486;2023-06-24T06:56:36;101780.31;;;17.91;100.00
55610;BME280;41486;52.502;13.486;2023-06-24T06:59:04;101785.22;;;17.76;100.00
55610;BME280;41486;52.502;13.486;2023-06-24T07:01:34;101785.22;;;17.76;100.00
55610;BME280;41486;52.502;13.486;2023-06-24T07:04:02;101787.16;;;17.74;100.00
55610;BME280;41486;52.502;13.486;2023-06-24T07:06:30;101780.59;;;17.78;100.00
55610;BME280;41486;52.502;13.486;2023-06-24T07:08:59;101782.16;;;17.91;100.00
55610;BME280;41486;52.502;13.486;2023-06-24T07:11:27;101780.50;;;18.00;100.00
55610;BME280;41486;52.502;13.486;2023-06-24T07:13:55;101783.47;;;17.96;100.00
55610;BME280;41486;52.502;13.486;2023-06-24T07:16:25;101775.19;;;18.00;100.00
55610;BME280;41486;52.502;13.486;2023-06-24T07:18:55;101783.88;;;18.02;100.00
55610;BME280;41486;52.502;13.486;2023-06-24T07:21:23;101780.81;;;17.96;100.00
55610;BME280;41486;52.502;13.486;2023-06-24T07:23:51;101792.16;;;18.08;100.00
55610;BME280;41486;52.502;13.486;2023-06-24T07:26:19;101790.06;;;18.22;100.00
55610;BME280;41486;52.502;13.486;2023-06-24T07:28:47;101796.25;;;18.32;100.00
55610;BME280;41486;52.502;13.486;2023-06-24T07:31:29;101802.13;;;18.16;100.00
55610;BME280;41486;52.502;13.486;2023-06-24T07:33:59;101799.91;;;18.21;100.00
55610;BME280;41486;52.502;13.486;2023-06-24T07:36:27;101811.53;;;18.20;100.00
55610;BME280;41486;52.502;13.486;2023-06-24T07:38:56;101815.88;;;18.41;100.00
55610;BME280;41486;52.502;13.486;2023-06-24T07:41:26;101820.38;;;18.50;100.00
55610;BME280;41486;52.502;13.486;2023-06-24T07:43:54;101821.03;;;18.72;100.00
55610;BME280;41486;52.502;13.486;2023-06-24T07:46:22;101827.34;;;18.71;100.00
55610;BME280;41486;52.502;13.486;2023-06-24T07:48:50;101830.31;;;18.48;100.00
55610;BME280;41486;52.502;13.486;2023-06-24T07:51:20;101818.69;;;18.39;100.00
55610;BME280;41486;52.502;13.486;2023-06-24T07:53:53;101815.88;;;18.31;100.00
55610;BME280;41486;52.502;13.486;2023-06-24T07:56:21;101817.97;;;18.37;100.00
55610;BME280;41486;52.502;13.486;2023-06-24T07:58:49;101824.00;;;18.49;100.00
55610;BME280;41486;52.502;13.486;2023-06-24T08:01:17;101820.22;;;18.52;100.00
55610;BME280;41486;52.502;13.486;2023-06-24T08:03:45;101832.13;;;18.57;100.00
55610;BME280;41486;52.502;13.486;2023-06-24T08:06:13;101820.34;;;18.80;97.99
55610;BME280;41486;52.502;13.486;2023-06-24T08:08:42;101826.78;;;18.67;96.00
55610;BME280;41486;52.502;13.486;2023-06-24T08:11:13;101821.91;;;18.72;94.50
55610;BME280;41486;52.502;13.486;2023-06-24T08:13:43;101821.19;;;18.70;95.19
55610;BME280;41486;52.502;13.486;2023-06-24T08:16:11;101822.28;;;18.87;95.07
55610;BME280;41486;52.502;13.486;2023-06-24T08:18:39;101826.50;;;19.00;97.07
55610;BME280;41486;52.502;13.486;2023-06-24T08:21:08;101820.16;;;18.91;94.26
55610;BME280;41486;52.502;13.486;2023-06-24T08:23:36;101835.88;;;19.04;92.75
55610;BME280;41486;52.502;13.486;2023-06-24T08:26:10;101825.66;;;18.89;90.29
55610;BME280;41486;52.502;13.486;2023-06-24T08:28:45;101828.78;;;18.95;90.11
55610;BME280;41486;52.502;13.486;2023-06-24T08:31:13;101829.59;;;18.95;88.71
55610;BME280;41486;52.502;13.486;2023-06-24T08:33:43;101837.03;;;19.01;90.55
55610;BME280;41486;52.502;13.486;2023-06-24T08:36:27;101832.66;;;19.10;87.44
55610;BME280;41486;52.502;13.486;2023-06-24T08:38:56;101837.97;;;19.20;91.57
55610;BME280;41486;52.502;13.486;2023-06-24T08:41:26;101833.69;;;19.37;90.15
55610;BME280;41486;52.502;13.486;2023-06-24T08:43:57;101828.19;;;19.48;90.42
55610;BME280;41486;52.502;13.486;2023-06-24T08:46:25;101828.34;;;19.37;91.89
55610;BME280;41486;52.502;13.486;2023-06-24T08:48:59;101835.56;;;19.27;90.15
55610;BME280;41486;52.502;13.486;2023-06-24T08:51:33;101835.38;;;19.38;88.29
55610;BME280;41486;52.502;13.486;2023-06-24T08:54:07;101831.44;;;19.42;88.50
55610;BME280;41486;52.502;13.486;2023-06-24T08:56:39;101828.63;;;19.44;88.92
55610;BME280;41486;52.502;13.486;2023-06-24T08:59:08;101836.19;;;19.48;90.22
55610;BME280;41486;52.502;13.486;2023-06-24T09:01:37;101829.81;;;19.59;84.95
55610;BME280;41486;52.502;13.486;2023-06-24T09:04:05;101820.91;;;19.68;86.55
55610;BME280;41486;52.502;13.486;2023-06-24T09:06:33;101831.00;;;19.75;85.32
55610;BME280;41486;52.502;13.486;2023-06-24T09:09:02;101839.28;;;19.71;86.48
55610;BME280;41486;52.502;13.486;2023-06-24T09:11:30;101840.22;;;19.52;88.93
55610;BME280;41486;52.502;13.486;2023-06-24T09:14:02;101836.34;;;19.75;88.10
55610;BME280;41486;52.502;13.486;2023-06-24T09:16:30;101843.38;;;19.76;86.03
55610;BME280;41486;52.502;13.486;2023-06-24T09:18:58;101841.31;;;19.60;76.54
55610;BME280;41486;52.502;13.486;2023-06-24T09:21:27;101843.41;;;19.66;80.02
55610;BME280;41486;52.502;13.486;2023-06-24T09:23:59;101838.56;;;19.79;82.89
55610;BME280;41486;52.502;13.486;2023-06-24T09:26:27;101839.06;;;19.93;81.61
55610;BME280;41486;52.502;13.486;2023-06-24T09:28:57;101850.28;;;19.96;77.55
55610;BME280;41486;52.502;13.486;2023-06-24T09:31:26;101848.47;;;19.97;79.52
55610;BME280;41486;52.502;13.486;2023-06-24T09:33:57;101841.75;;;19.93;77.06
55610;BME280;41486;52.502;13.486;2023-06-24T09:36:31;101843.13;;;19.97;74.85
55610;BME280;41486;52.502;13.486;2023-06-24T09:39:05;101837.38;;;19.92;72.83
55610;BME280;41486;52.502;13.486;2023-06-24T09:41:43;101832.75;;;19.94;73.84
55610;BME280;41486;52.502;13.486;2023-06-24T09:44:11;101835.88;;;20.07;79.00
55610;BME280;41486;52.502;13.486;2023-06-24T09:46:41;101832.22;;;20.08;77.22
55610;BME280;41486;52.502;13.486;2023-06-24T09:49:10;101837.88;;;20.05;76.08
55610;BME280;41486;52.502;13.486;2023-06-24T09:51:39;101838.41;;;20.09;75.67
55610;BME280;41486;52.502;13.486;2023-06-24T09:54:08;101833.47;;;20.32;75.27
55610;BME280;41486;52.502;13.486;2023-06-24T09:56:40;101832.91;;;20.28;74.52
55610;BME280;41486;52.502;13.486;2023-06-24T09:59:12;101826.34;;;20.59;75.98
55610;BME280;41486;52.502;13.486;2023-06-24T10:01:44;101823.66;;;20.59;70.79
55610;BME280;41486;52.502;13.486;2023-06-24T10:04:17;101820.00;;;20.60;70.37
55610;BME280;41486;52.502;13.486;2023-06-24T10:06:46;101819.84;;;20.61;72.29
55610;BME280;41486;52.502;13.486;2023-06-24T10:09:14;101810.16;;;20.78;69.96
55610;BME280;41486;52.502;13.486;2023-06-24T10:11:45;101805.84;;;20.86;69.42
55610;BME280;41486;52.502;13.486;2023-06-24T10:14:14;101811.56;;;20.91;68.19
55610;BME280;41486;52.502;13.486;2023-06-24T10:16:50;101808.94;;;20.99;68.37
55610;BME280;41486;52.502;13.486;2023-06-24T10:19:19;101815.75;;;21.20;66.09
55610;BME280;41486;52.502;13.486;2023-06-24T10:21:51;101813.22;;;21.18;63.87
55610;BME280;41486;52.502;13.486;2023-06-24T10:24:30;101809.66;;;21.36;62.42
55610;BME280;41486;52.502;13.486;2023-06-24T10:27:06;101809.69;;;21.44;59.26
55610;BME280;41486;52.502;13.486;2023-06-24T10:29:37;101805.88;;;21.55;60.08
55610;BME280;41486;52.502;13.486;2023-06-24T10:32:09;101810.00;;;21.84;59.91
55610;BME280;41486;52.502;13.486;2023-06-24T10:34:41;101803.03;;;22.24;56.54
55610;BME280;41486;52.502;13.486;2023-06-24T10:37:12;101812.78;;;22.58;56.42
55610;BME280;41486;52.502;13.486;2023-06-24T10:39:48;101813.09;;;22.80;57.37
55610;BME280;41486;52.502;13.486;2023-06-24T10:42:28;101804.75;;;22.66;55.92
55610;BME280;41486;52.502;13.486;2023-06-24T10:44:57;101798.72;;;22.48;56.90
55610;BME280;41486;52.502;13.486;2023-06-24T10:47:29;101798.69;;;22.81;57.05
55610;BME280;41486;52.502;13.486;2023-06-24T10:49:57;101800.03;;;22.85;54.48
55610;BME280;41486;52.502;13.486;2023-06-24T10:52:26;101804.03;;;22.97;53.29
55610;BME280;41486;52.502;13.486;2023-06-24T10:54:54;101802.97;;;23.15;54.14
55610;BME280;41486;52.502;13.486;2023-06-24T10:57:25;101798.19;;;22.61;56.99
55610;BME280;41486;52.502;13.486;2023-06-24T10:59:54;101795.50;;;22.69;58.27
55610;BME280;41486;52.502;13.486;2023-06-24T11:02:24;101793.59;;;23.27;57.42
55610;BME280;41486;52.502;13.486;2023-06-24T11:04:55;101779.53;;;23.48;56.04
55610;BME280;41486;52.502;13.486;2023-06-24T11:07:25;101796.38;;;23.34;58.09
55610;BME280;41486;52.502;13.486;2023-06-24T11:09:54;101784.78;;;23.42;55.55
55610;BME280;41486;52.502;13.486;2023-06-24T11:12:24;101794.09;;;23.94;54.31
55610;BME280;41486;52.502;13.486;2023-06-24T11:14:55;101791.88;;;24.21;53.67
55610;BME280;41486;52.502;13.486;2023-06-24T11:17:24;101788.09;;;25.07;51.53
55610;BME280;41486;52.502;13.486;2023-06-24T11:19:54;101789.69;;;25.67;49.79
55610;BME280;41486;52.502;13.486;2023-06-24T11:22:23;101793.09;;;25.76;49.09
55610;BME280;41486;52.502;13.486;2023-06-24T11:24:52;101798.09;;;26.66;46.59
55610;BME280;41486;52.502;13.486;2023-06-24T11:27:24;101798.88;;;26.32;45.55
55610;BME280;41486;52.502;13.486;2023-06-24T11:29:54;101796.56;;;26.57;45.70
55610;BME280;41486;52.502;13.486;2023-06-24T11:32:22;101797.63;;;27.19;43.62
55610;BME280;41486;52.502;13.486;2023-06-24T11:34:50;101803.66;;;26.86;44.80
55610;BME280;41486;52.502;13.486;2023-06-24T11:37:20;101794.28;;;27.17;43.41
55610;BME280;41486;52.502;13.486;2023-06-24T11:40:00;101801.81;;;27.29;42.57
55610;BME280;41486;52.502;13.486;2023-06-24T11:42:30;101796.94;;;27.46;43.25
55610;BME280;41486;52.502;13.486;2023-06-24T11:44:59;101787.84;;;27.67;42.60
55610;BME280;41486;52.502;13.486;2023-06-24T11:47:31;101787.88;;;27.80;42.87
55610;BME280;41486;52.502;13.486;2023-06-24T11:50:01;101793.88;;;27.20;43.26
55610;BME280;41486;52.502;13.486;2023-06-24T11:52:38;101789.72;;;27.18;42.67
55610;BME280;41486;52.502;13.486;2023-06-24T11:55:11;101791.72;;;28.33;41.28
55610;BME280;41486;52.502;13.486;2023-06-24T11:57:54;101787.97;;;28.47;40.22
55610;BME280;41486;52.502;13.486;2023-06-24T12:00:23;101787.47;;;26.86;43.30
55610;BME280;41486;52.502;13.486;2023-06-24T12:02:56;101790.34;;;27.62;41.68
55610;BME280;41486;52.502;13.486;2023-06-24T12:05:27;101779.00;;;28.60;40.11
55610;BME280;41486;52.502;13.486;2023-06-24T12:07:58;101787.69;;;27.89;40.16
55610;BME280;41486;52.502;13.486;2023-06-24T12:10:27;101782.88;;;27.70;40.72
55610;BME280;41486;52.502;13.486;2023-06-24T12:12:57;101791.22;;;28.96;39.37
55610;BME280;41486;52.502;13.486;2023-06-24T12:15:25;101786.88;;;27.95;40.62
55610;BME280;41486;52.502;13.486;2023-06-24T12:17:54;101793.13;;;28.69;38.72
55610;BME280;41486;52.502;13.486;2023-06-24T12:20:25;101781.66;;;26.89;42.48
55610;BME280;41486;52.502;13.486;2023-06-24T12:22:58;101771.69;;;25.90;45.06
55610;BME280;41486;52.502;13.486;2023-06-24T12:25:26;101779.34;;;25.19;46.77
55610;BME280;41486;52.502;13.486;2023-06-24T12:27:54;101772.56;;;25.24;47.99
55610;BME280;41486;52.502;13.486;2023-06-24T12:30:23;101764.09;;;25.42;47.36
55610;BME280;41486;52.502;13.486;2023-06-24T12:32:51;101763.66;;;25.08;48.16
55610;BME280;41486;52.502;13.486;2023-06-24T12:35:19;101760.88;;;25.01;47.39
55610;BME280;41486;52.502;13.486;2023-06-24T12:37:47;101763.09;;;24.68;49.89
55610;BME280;41486;52.502;13.486;2023-06-24T12:40:19;101754.81;;;24.69;48.81
55610;BME280;41486;52.502;13.486;2023-06-24T12:42:47;101761.22;;;24.30;46.83
55610;BME280;41486;52.502;13.486;2023-06-24T12:45:15;101765.31;;;24.41;49.49
55610;BME280;41486;52.502;13.486;2023-06-24T12:47:43;101762.13;;;24.61;49.80
55610;BME280;41486;52.502;13.486;2023-06-24T12:50:11;101755.44;;;25.46;47.01
55610;BME280;41486;52.502;13.486;2023-06-24T12:52:39;101756.16;;;25.92;47.61
55610;BME280;41486;52.502;13.486;2023-06-24T12:55:08;101763.16;;;25.49;46.61
55610;BME280;41486;52.502;13.486;2023-06-24T12:57:37;101760.88;;;25.68;47.42
55610;BME280;41486;52.502;13.486;2023-06-24T13:00:06;101755.84;;;26.52;44.38
55610;BME280;41486;52.502;13.486;2023-06-24T13:02:37;101751.47;;;27.14;41.41
55610;BME280;41486;52.502;13.486;2023-06-24T13:05:07;101759.88;;;28.35;38.66
55610;BME280;41486;52.502;13.486;2023-06-24T13:07:35;101767.75;;;28.30;37.41
55610;BME280;41486;52.502;13.486;2023-06-24T13:10:03;101759.63;;;28.57;37.91
55610;BME280;41486;52.502;13.486;2023-06-24T13:12:33;101772.25;;;29.10;37.46
55610;BME280;41486;52.502;13.486;2023-06-24T13:15:02;101769.44;;;29.75;36.23
55610;BME280;41486;52.502;13.486;2023-06-24T13:17:31;101772.94;;;29.83;37.01
55610;BME280;41486;52.502;13.486;2023-06-24T13:20:00;101776.53;;;30.09;35.43
55610;BME280;41486;52.502;13.486;2023-06-24T13:22:31;101772.31;;;28.76;37.39
55610;BME280;41486;52.502;13.486;2023-06-24T13:25:00;101764.38;;;27.81;38.71
55610;BME280;41486;52.502;13.486;2023-06-24T13:27:29;101762.47;;;29.02;36.71
55610;BME280;41486;52.502;13.486;2023-06-24T13:29:57;101773.88;;;27.50;39.55
55610;BME280;41486;52.502;13.486;2023-06-24T13:32:26;101769.75;;;27.61;41.71
55610;BME280;41486;52.502;13.486;2023-06-24T13:34:54;101763.78;;;26.88;41.99
55610;BME280;41486;52.502;13.486;2023-06-24T13:37:22;101768.94;;;27.74;41.23
55610;BME280;41486;52.502;13.486;2023-06-24T13:39:51;101765.03;;;26.86;42.50
55610;BME280;41486;52.502;13.486;2023-06-24T13:42:19;101765.53;;;27.03;42.17
55610;BME280;41486;52.502;13.486;2023-06-24T13:44:47;101766.28;;;26.61;42.46
55610;BME280;41486;52.502;13.486;2023-06-24T13:47:15;101760.50;;;25.93;44.46
55610;BME280;41486;52.502;13.486;2023-06-24T13:49:45;101752.97;;;25.88;44.12
55610;BME280;41486;52.502;13.486;2023-06-24T13:52:13;101749.06;;;25.69;44.44
55610;BME280;41486;52.502;13.486;2023-06-24T13:54:40;101744.28;;;26.08;43.69
55610;BME280;41486;52.502;13.486;2023-06-24T13:57:09;101742.09;;;26.18;43.69
55610;BME280;41486;52.502;13.486;2023-06-24T13:59:37;101748.38;;;25.82;45.01
55610;BME280;41486;52.502;13.486;2023-06-24T14:02:05;101744.81;;;26.47;43.61
55610;BME280;41486;52.502;13.486;2023-06-24T14:04:35;101743.03;;;26.60;42.86
55610;BME280;41486;52.502;13.486;2023-06-24T14:07:05;101741.56;;;26.58;42.75
55610;BME280;41486;52.502;13.486;2023-06-24T14:09:33;101742.47;;;26.72;43.24
55610;BME280;41486;52.502;13.486;2023-06-24T14:12:01;101744.69;;;26.61;43.24
55610;BME280;41486;52.502;13.486;2023-06-24T14:14:30;101735.84;;;26.18;43.94
55610;BME280;41486;52.502;13.486;2023-06-24T14:16:58;101724.53;;;26.57;43.83
55610;BME280;41486;52.502;13.486;2023-06-24T14:19:26;101735.34;;;26.64;43.10
55610;BME280;41486;52.502;13.486;2023-06-24T14:21:56;101733.38;;;26.44;43.99
55610;BME280;41486;52.502;13.486;2023-06-24T14:24:26;101734.97;;;26.10;43.82
55610;BME280;41486;52.502;13.486;2023-06-24T14:26:54;101728.66;;;26.03;44.66
55610;BME280;41486;52.502;13.486;2023-06-24T14:29:22;101735.34;;;26.57;43.83
55610;BME280;41486;52.502;13.486;2023-06-24T14:31:51;101723.38;;;26.73;44.59
55610;BME280;41486;52.502;13.486;2023-06-24T14:34:19;101728.94;;;27.42;43.06
55610;BME280;41486;52.502;13.486;2023-06-24T14:36:47;101730.28;;;27.24;42.27
55610;BME280;41486;52.502;13.486;2023-06-24T14:39:15;101724.72;;;26.84;42.72
55610;BME280;41486;52.502;13.486;2023-06-24T14:41:46;101721.25;;;26.69;43.29
55610;BME280;41486;52.502;13.486;2023-06-24T14:44:14;101724.09;;;26.54;43.32
55610;BME280;41486;52.502;13.486;2023-06-24T14:46:42;101720.69;;;26.38;43.45
55610;BME280;41486;52.502;13.486;2023-06-24T14:49:11;101721.56;;;26.45;43.46